Share

Tha Wang Pha, Thailand

6:19 PM ICT on April 24, 2014 (GMT +0700)
Ban Na Fa (INANCHOM2) Elev 817 ft | 19.07 °N, 100.87 °E | Change Station

Current weather conditions updated 5 seconds ago

Overcast
Overcast
93.6 °F
Feels Like 98 °F
N
2.5
Wind Variable Wind from ESE
Gusts 2.5 mph
Sunrise 5:53 AM
Sunset 6:36 PM
Moon Waning Crescent

Tomorrow is forecast to be Much Cooler than today. Thunderstorms early.

Pressure 29.62 in
Visibility 6.2 miles
Clouds Few 2300 ft
Few 2400 ft
Overcast 30000 ft
Heat Index 98 °F
Dew Point 68 °F
Humidity 43%
Rainfall 0.00 in
Snow Depth Not available.
UV 0 out of 16
Pollen Not available.
Air Quality Not available.
Flu Activity Not available.
METAR VTCN 241100Z 19009KT 9999 FEW023CB FEW024 OVC300 36/18 Q1003 A2963 CB W NW RWY02/INFO C

More Conditions Fewer Conditions

Pressure 29.62 in
Visibility 6.2 miles
Clouds Few 2300 ft
Few 2400 ft
Overcast 30000 ft
Heat Index 98 °F
Dew Point 68 °F
Humidity 43%
Rainfall 0.00 in
Snow Depth Not available.
UV 0 out of 16
Pollen Not available.
Air Quality Not available.
Flu Activity Not available.
METAR VTCN 241100Z 19009KT 9999 FEW023CB FEW024 OVC300 36/18 Q1003 A2963 CB W NW RWY02/INFO C

More Conditions Fewer Conditions

10-Day Weather Forecast

Almanac

Astronomy

Apr. 24, 2014 Rise Set
Actual Time 5:53 AM ICT 6:36 PM ICT
Civil Twilight 5:30 AM ICT 6:59 PM ICT
Nautical Twilight 5:04 AM ICT 7:26 PM ICT
Astronomical Twilight 4:37 AM ICT 7:53 PM ICT
Moon 1:58 AM ICT 1:59 PM ICT
Length of Visible Light 13h 28m
Length of Day
12h 43m
Tomorrow will be 0m 58s longer.
Waning Crescent, 26% of the Moon is Illuminated
Today
Waning Crescent
Apr 29
New
May 6
First Quarter
May 14
Full
May 21
Last Quarter

Yesterday's Extremes

Country Highs Country Lows

Community

  • Stacked
    Stacked
  • clouds approaching Red Sox Nation
    clouds approaching Red Sox Nation
  • Balance
    Balance
  • Nestled In
    Nestled In
  • Stunning Sunrise
    Stunning Sunrise

WunderPhotos

Upload Photos

1,704,584 photos uploaded!

WunderBlogs® & News

Nearby

Snow Depth

Not available.

Coastal Water Temperatures

Place Temperature
No Stations Reporting

Earthquake Activity

City Distance Mag. Time & Date
No recent earthquake activity has been reported nearby.
Minimum magnitude displayed is 2.5.

Nearby Weather Stations

Station Location Temp. Heat Index Dew Point Humidity Wind Precip. Elev Updated Type
Ban Na Fa, Chom Phra 93.6 °F 98 °F 68 °F 43% ESE  at  2.5 mph 0.00 in / hr 817 ft 6:19 PM ICT Rapid Fire

Show More Stations Show Fewer Stations

What do you think?

We're not finished. Please let us know what you like, what you don't like, and what you are still missing.